Time;durP1;ratioP1;P1;durP2;ratioP2;P2;SDS_P1;SDS_P2;PMS_P1;PMS_P2;Temp;Humidity;BMP_temperature;BMP_pressure;BME280_temperature;BME280_humidity;BME280_pressure;Samples;Min_cycle;Max_cycle;Signal;HPM_P1;HPM_P2
2023/10/13 00:02:39;;;;;;;5.68;3.28;;;;;;;;;;5158404;27;20031;-72
2023/10/13 00:05:26;;;;;;;7.38;3.95;;;;;;;;;;5158233;27;20091;-72
2023/10/13 00:08:12;;;;;;;6.22;3.42;;;;;;;;;;5156371;27;20022;-71
2023/10/13 00:11:00;;;;;;;7.90;3.60;;;;;;;;;;5156210;27;20440;-72
2023/10/13 00:13:52;;;;;;;5.93;3.55;;;;;;;;;;5156218;27;20027;-72
2023/10/13 00:16:39;;;;;;;9.35;3.78;;;;;;;;;;5141355;27;20026;-72
2023/10/13 00:19:25;;;;;;;8.70;4.18;;;;;;;;;;5155385;27;20356;-72
2023/10/13 00:22:11;;;;;;;6.80;3.63;;;;;;;;;;5157742;27;20444;-72
2023/10/13 00:25:03;;;;;;;8.07;3.90;;;;;;;;;;5142104;27;20082;-72
2023/10/13 00:27:51;;;;;;;8.32;3.40;;;;;;;;;;5158087;27;20456;-72
2023/10/13 00:30:37;;;;;;;10.93;3.70;;;;;;;;;;5140564;27;20037;-73
2023/10/13 00:33:23;;;;;;;8.13;3.60;;;;;;;;;;5156579;27;20015;-72
2023/10/13 00:36:17;;;;;;;10.95;3.67;;;;;;;;;;5141385;27;20019;-72
2023/10/13 00:39:06;;;;;;;10.30;3.85;;;;;;;;;;5155733;27;20022;-72
2023/10/13 00:41:52;;;;;;;6.82;3.70;;;;;;;;;;5155947;27;20080;-72
2023/10/13 00:44:41;;;;;;;7.95;3.63;;;;;;;;;;5141515;27;20097;-72
2023/10/13 00:50:23;;;;;;;8.82;3.42;;;;;;;;;;5155468;27;20464;-71
2023/10/13 00:53:09;;;;;;;7.32;3.47;;;;;;;;;;5140647;27;20417;-72
2023/10/13 00:55:57;;;;;;;6.18;3.22;;;;;;;;;;5140943;27;20037;-71
2023/10/13 00:58:43;;;;;;;5.75;3.15;;;;;;;;;;5156017;27;20018;-72
2023/10/13 01:01:32;;;;;;;7.68;3.50;;;;;;;;;;5156870;27;20015;-71
2023/10/13 01:04:19;;;;;;;5.25;3.15;;;;;;;;;;5154767;27;20015;-72
2023/10/13 01:07:07;;;;;;;5.72;3.30;;;;;;;;;;5139967;27;20064;-72
2023/10/13 01:09:54;;;;;;;6.45;3.60;;;;;;;;;;5155212;27;20019;-72
2023/10/13 01:12:42;;;;;;;5.22;3.10;;;;;;;;;;5154980;27;20367;-72
2023/10/13 01:15:29;;;;;;;7.22;3.00;;;;;;;;;;5156037;27;20113;-72
2023/10/13 01:18:16;;;;;;;6.72;3.10;;;;;;;;;;5154864;27;20114;-71
2023/10/13 01:21:04;;;;;;;7.72;3.78;;;;;;;;;;5154589;27;20019;-71
2023/10/13 01:23:50;;;;;;;6.68;3.30;;;;;;;;;;5154952;27;20015;-72
2023/10/13 01:26:40;;;;;;;4.53;3.42;;;;;;;;;;5155564;27;20107;-72
2023/10/13 01:29:28;;;;;;;11.45;3.70;;;;;;;;;;5156160;27;20027;-72
2023/10/13 01:32:23;;;;;;;6.07;3.35;;;;;;;;;;5154615;27;20346;-72
2023/10/13 01:35:08;;;;;;;8.48;3.40;;;;;;;;;;5155319;27;20033;-72
2023/10/13 01:37:54;;;;;;;6.55;3.33;;;;;;;;;;5139640;27;20400;-73
2023/10/13 01:40:39;;;;;;;6.57;3.58;;;;;;;;;;5155703;27;20351;-72
2023/10/13 01:43:25;;;;;;;8.50;4.13;;;;;;;;;;5155467;27;20027;-72
2023/10/13 01:46:13;;;;;;;6.90;4.03;;;;;;;;;;5139737;27;20011;-72
2023/10/13 01:48:58;;;;;;;7.40;4.30;;;;;;;;;;5139916;27;20070;-72
2023/10/13 01:51:47;;;;;;;5.43;3.78;;;;;;;;;;5156463;27;20384;-72
2023/10/13 01:54:33;;;;;;;9.10;4.00;;;;;;;;;;5154080;27;20037;-72
2023/10/13 01:57:18;;;;;;;5.70;3.30;;;;;;;;;;5155720;27;20118;-72
2023/10/13 02:00:10;;;;;;;7.60;3.40;;;;;;;;;;5154659;27;20038;-70
2023/10/13 02:03:00;;;;;;;5.43;3.20;;;;;;;;;;5140044;27;20091;-71
2023/10/13 02:05:49;;;;;;;5.57;3.63;;;;;;;;;;5140480;27;20030;-71
2023/10/13 02:08:39;;;;;;;7.90;3.20;;;;;;;;;;5139929;27;20078;-71
2023/10/13 02:11:25;;;;;;;4.20;2.92;;;;;;;;;;5140035;27;20030;-73
2023/10/13 02:14:11;;;;;;;7.60;3.30;;;;;;;;;;5145341;27;20019;-72
2023/10/13 02:17:12;;;;;;;8.05;3.33;;;;;;;;;;5165709;27;20071;-72
2023/10/13 02:19:57;;;;;;;6.15;3.30;;;;;;;;;;5174066;27;20117;-71
2023/10/13 02:22:49;;;;;;;5.82;3.22;;;;;;;;;;5169722;27;20072;-72
2023/10/13 02:25:35;;;;;;;6.57;3.80;;;;;;;;;;5177497;27;20042;-71
2023/10/13 02:28:28;;;;;;;6.38;3.60;;;;;;;;;;5177883;27;20018;-72
2023/10/13 02:31:14;;;;;;;7.25;3.33;;;;;;;;;;5172454;27;20043;-73
2023/10/13 02:34:00;;;;;;;7.13;2.97;;;;;;;;;;5174439;27;20026;-71
2023/10/13 02:36:49;;;;;;;7.45;3.70;;;;;;;;;;5174521;27;20406;-71
2023/10/13 02:39:36;;;;;;;5.82;3.20;;;;;;;;;;5172204;27;20027;-73
2023/10/13 02:42:24;;;;;;;6.18;2.83;;;;;;;;;;5173462;27;20047;-70
2023/10/13 02:45:12;;;;;;;5.20;3.53;;;;;;;;;;5175090;27;20015;-71
2023/10/13 02:48:16;;;;;;;4.68;2.90;;;;;;;;;;5149230;27;20497;-71
2023/10/13 02:51:05;;;;;;;8.60;3.40;;;;;;;;;;5173203;27;20042;-71
2023/10/13 02:53:52;;;;;;;5.60;3.28;;;;;;;;;;5176700;27;20026;-71
2023/10/13 02:56:48;;;;;;;6.05;3.65;;;;;;;;;;5176278;27;20019;-71
2023/10/13 02:59:34;;;;;;;6.55;3.45;;;;;;;;;;5148831;27;20078;-72
2023/10/13 03:02:27;;;;;;;6.45;3.53;;;;;;;;;;5149941;27;20019;-71
2023/10/13 03:05:13;;;;;;;6.30;3.25;;;;;;;;;;5169994;27;20086;-71
2023/10/13 03:08:03;;;;;;;4.30;3.17;;;;;;;;;;5163666;27;20015;-72
2023/10/13 03:10:53;;;;;;;5.10;3.05;;;;;;;;;;5164606;27;20070;-73
2023/10/13 03:13:44;;;;;;;8.25;3.38;;;;;;;;;;5162637;27;20057;-72
2023/10/13 03:16:29;;;;;;;6.45;3.70;;;;;;;;;;5157243;27;20011;-72
2023/10/13 03:19:18;;;;;;;7.25;3.92;;;;;;;;;;5143157;27;20093;-73
2023/10/13 03:22:11;;;;;;;6.60;3.75;;;;;;;;;;5157693;27;20038;-72
2023/10/13 03:25:04;;;;;;;5.38;3.40;;;;;;;;;;5157263;27;20050;-71
2023/10/13 03:30:41;;;;;;;7.25;3.58;;;;;;;;;;5158654;27;20047;-72
2023/10/13 03:33:27;;;;;;;6.88;4.38;;;;;;;;;;5162126;27;20042;-71
2023/10/13 03:36:35;;;;;;;6.43;4.07;;;;;;;;;;5157449;27;20444;-73
2023/10/13 03:39:19;;;;;;;8.82;3.80;;;;;;;;;;5166837;27;20019;-72
2023/10/13 03:42:05;;;;;;;5.43;3.65;;;;;;;;;;5174854;27;20082;-70
2023/10/13 03:44:54;;;;;;;14.60;4.15;;;;;;;;;;5177683;27;20030;-72
2023/10/13 03:47:42;;;;;;;7.25;3.50;;;;;;;;;;5175555;27;20015;-71
2023/10/13 03:50:32;;;;;;;7.32;3.72;;;;;;;;;;5176759;27;20043;-71
2023/10/13 03:53:19;;;;;;;4.60;3.67;;;;;;;;;;5178333;27;20007;-72
2023/10/13 03:56:08;;;;;;;7.97;3.53;;;;;;;;;;5158737;27;20037;-72
2023/10/13 03:58:57;;;;;;;6.43;3.30;;;;;;;;;;5177544;27;20027;-71
2023/10/13 04:01:58;;;;;;;5.50;3.50;;;;;;;;;;5178252;27;20056;-70
2023/10/13 04:04:49;;;;;;;10.20;3.85;;;;;;;;;;5177021;27;20019;-72
2023/10/13 04:19:22;;;;;;;6.50;3.83;;;;;;;;;;5159047;27;20485;-71
2023/10/13 04:22:20;;;;;;;7.18;3.78;;;;;;;;;;5142765;27;20329;-71
2023/10/13 04:25:34;;;;;;;8.35;4.03;;;;;;;;;;5143345;27;20019;-72
2023/10/13 04:33:51;;;;;;;8.38;4.00;;;;;;;;;;5156482;27;20025;-72
2023/10/13 04:36:45;;;;;;;9.65;4.25;;;;;;;;;;5141649;27;20024;-72
2023/10/13 04:39:35;;;;;;;9.77;4.22;;;;;;;;;;5156719;27;20015;-72
2023/10/13 04:42:39;;;;;;;5.95;3.72;;;;;;;;;;5140656;27;20460;-70
2023/10/13 04:54:45;;;;;;;10.82;4.28;;;;;;;;;;5093939;28;20118;-72
2023/10/13 05:44:33;;;;;;;12.25;4.68;;;;;;;;;;5155996;27;20051;-73
2023/10/13 05:49:40;;;;;;;10.55;4.68;;;;;;;;;;5154725;27;20035;-72
2023/10/13 06:29:31;;;;;;;23.52;6.72;;;;;;;;;;5157753;27;20034;-70
2023/10/13 06:32:17;;;;;;;10.75;4.70;;;;;;;;;;5167564;27;20015;-72
2023/10/13 06:35:07;;;;;;;13.85;5.20;;;;;;;;;;5167969;27;20014;-71
2023/10/13 06:37:53;;;;;;;10.15;4.90;;;;;;;;;;5173344;27;20084;-70
2023/10/13 06:40:42;;;;;;;10.45;4.30;;;;;;;;;;5160676;27;20011;-71
2023/10/13 06:43:32;;;;;;;13.93;5.40;;;;;;;;;;5161021;27;20031;-72
2023/10/13 06:46:23;;;;;;;12.25;5.00;;;;;;;;;;5174744;27;20064;-73
2023/10/13 06:49:10;;;;;;;16.95;5.35;;;;;;;;;;5161957;27;20043;-73
2023/10/13 06:52:00;;;;;;;11.82;4.80;;;;;;;;;;5167804;27;20097;-73
2023/10/13 06:54:46;;;;;;;18.63;6.15;;;;;;;;;;5164504;27;20019;-73
2023/10/13 06:57:33;;;;;;;17.42;5.47;;;;;;;;;;5160794;27;20030;-72
2023/10/13 07:03:33;;;;;;;15.02;6.18;;;;;;;;;;5145889;27;20058;-73
2023/10/13 07:06:22;;;;;;;19.70;6.00;;;;;;;;;;5143528;27;20449;-72
2023/10/13 07:09:15;;;;;;;15.57;6.30;;;;;;;;;;5143094;27;20103;-72
2023/10/13 07:12:02;;;;;;;13.57;5.38;;;;;;;;;;5143191;27;20034;-71
2023/10/13 07:15:10;;;;;;;13.38;4.85;;;;;;;;;;5158520;27;20026;-75
2023/10/13 07:17:59;;;;;;;12.70;4.50;;;;;;;;;;5157722;27;20065;-72
2023/10/13 07:20:44;;;;;;;16.92;4.70;;;;;;;;;;5143052;27;20436;-71
2023/10/13 07:23:30;;;;;;;7.68;3.85;;;;;;;;;;5158651;27;20034;-71
2023/10/13 07:26:16;;;;;;;8.25;3.70;;;;;;;;;;5143403;27;20015;-73
2023/10/13 07:29:02;;;;;;;9.40;4.78;;;;;;;;;;5157913;27;20019;-72
2023/10/13 07:31:48;;;;;;;8.73;4.00;;;;;;;;;;5156911;27;20015;-71
2023/10/13 07:34:35;;;;;;;9.95;4.18;;;;;;;;;;5157998;27;20066;-71
2023/10/13 07:37:29;;;;;;;8.50;4.18;;;;;;;;;;5157516;27;20106;-71
2023/10/13 07:43:12;;;;;;;9.63;3.92;;;;;;;;;;5157408;27;20022;-73
2023/10/13 07:45:59;;;;;;;10.98;4.47;;;;;;;;;;5157573;27;20029;-75
2023/10/13 07:48:45;;;;;;;9.45;4.18;;;;;;;;;;5142379;27;20104;-73
2023/10/13 07:51:32;;;;;;;8.30;4.63;;;;;;;;;;5157904;27;20033;-73
2023/10/13 07:54:21;;;;;;;12.27;5.60;;;;;;;;;;5158000;27;20030;-71
2023/10/13 07:57:07;;;;;;;13.07;5.30;;;;;;;;;;5157404;27;20018;-72
2023/10/13 08:00:06;;;;;;;12.95;5.30;;;;;;;;;;5157006;27;20050;-72
2023/10/13 08:03:09;;;;;;;11.07;5.57;;;;;;;;;;5157751;27;20050;-73
2023/10/13 08:06:19;;;;;;;8.38;5.13;;;;;;;;;;5156322;27;20065;-72
2023/10/13 08:09:30;;;;;;;8.55;5.72;;;;;;;;;;5156782;27;20046;-72
2023/10/13 08:12:21;;;;;;;8.13;5.95;;;;;;;;;;5141662;27;20022;-72
2023/10/13 08:15:21;;;;;;;12.95;6.50;;;;;;;;;;5156840;27;20019;-69
2023/10/13 08:18:16;;;;;;;8.45;5.45;;;;;;;;;;5142147;27;20029;-70
2023/10/13 08:21:02;;;;;;;23.95;7.60;;;;;;;;;;5155611;27;20023;-70
2023/10/13 08:32:59;;;;;;;11.82;6.57;;;;;;;;;;5156403;27;20394;-69
2023/10/13 08:36:26;;;;;;;16.05;6.95;;;;;;;;;;5155570;27;20440;-69
2023/10/13 08:38:55;;;;;;;15.73;6.85;;;;;;;;;;5156684;27;20421;-70
2023/10/13 08:41:53;;;;;;;13.23;6.75;;;;;;;;;;5157239;27;20033;-70
2023/10/13 08:44:45;;;;;;;13.77;7.00;;;;;;;;;;5155567;27;20486;-70
2023/10/13 08:47:36;;;;;;;13.43;6.55;;;;;;;;;;5141732;27;20050;-69
2023/10/13 08:53:33;;;;;;;14.77;6.97;;;;;;;;;;5156086;27;20019;-69
2023/10/13 08:56:35;;;;;;;15.70;8.50;;;;;;;;;;5141428;27;20413;-70
2023/10/13 08:59:38;;;;;;;13.70;6.70;;;;;;;;;;5141221;27;20037;-70
2023/10/13 09:06:00;;;;;;;13.77;6.28;;;;;;;;;;5156094;27;20045;-73
2023/10/13 09:09:05;;;;;;;18.52;7.18;;;;;;;;;;5141368;27;20019;-72
2023/10/13 09:11:53;;;;;;;9.50;6.63;;;;;;;;;;5141777;27;20398;-72
2023/10/13 09:14:44;;;;;;;14.00;6.78;;;;;;;;;;5156035;27;20061;-71
2023/10/13 09:23:25;;;;;;;13.23;6.53;;;;;;;;;;5155541;27;20106;-71
2023/10/13 09:26:12;;;;;;;12.30;6.35;;;;;;;;;;5140863;27;20019;-72
2023/10/13 09:28:57;;;;;;;10.98;6.50;;;;;;;;;;5140429;27;20022;-71
2023/10/13 09:31:44;;;;;;;11.48;6.97;;;;;;;;;;5155799;27;20063;-71
2023/10/13 09:34:33;;;;;;;31.95;8.93;;;;;;;;;;5140946;27;20037;-71
2023/10/13 09:37:22;;;;;;;12.85;7.05;;;;;;;;;;5140871;27;20015;-73
2023/10/13 09:40:25;;;;;;;13.43;7.50;;;;;;;;;;5156278;27;20026;-72
2023/10/13 09:43:15;;;;;;;14.82;7.00;;;;;;;;;;5140641;27;20456;-72
2023/10/13 09:46:17;;;;;;;14.63;7.53;;;;;;;;;;5155615;27;20071;-72
2023/10/13 09:49:14;;;;;;;23.15;8.10;;;;;;;;;;5155279;27;20121;-77
2023/10/13 09:52:01;;;;;;;14.52;7.43;;;;;;;;;;5142303;27;20030;-70
2023/10/13 09:54:59;;;;;;;12.93;7.07;;;;;;;;;;5140581;27;20023;-72
2023/10/13 09:57:48;;;;;;;11.02;6.13;;;;;;;;;;5154988;27;20044;-75
2023/10/13 10:06:38;;;;;;;11.52;6.00;;;;;;;;;;5155353;27;20019;-74
2023/10/13 10:09:43;;;;;;;10.38;6.60;;;;;;;;;;5156517;27;20015;-74
2023/10/13 10:12:46;;;;;;;15.27;7.57;;;;;;;;;;5141034;27;20056;-75
2023/10/13 10:15:43;;;;;;;20.55;7.88;;;;;;;;;;5141269;27;20451;-75
2023/10/13 10:18:35;;;;;;;17.63;8.18;;;;;;;;;;5141062;27;20031;-75
2023/10/13 10:21:22;;;;;;;16.83;8.20;;;;;;;;;;5156597;27;20106;-76
2023/10/13 10:24:22;;;;;;;14.60;9.98;;;;;;;;;;5140645;27;20023;-75
2023/10/13 10:27:14;;;;;;;16.27;10.85;;;;;;;;;;5154665;27;20083;-75
2023/10/13 10:30:03;;;;;;;17.02;10.57;;;;;;;;;;5141341;27;20079;-75
2023/10/13 10:32:53;;;;;;;20.75;12.82;;;;;;;;;;5155173;27;20052;-75
2023/10/13 10:35:40;;;;;;;24.10;13.20;;;;;;;;;;5155991;27;20101;-76
2023/10/13 10:41:14;;;;;;;16.83;11.93;;;;;;;;;;5177408;27;20064;-74
2023/10/13 10:44:02;;;;;;;18.02;10.35;;;;;;;;;;5165214;27;20075;-75
2023/10/13 10:46:57;;;;;;;14.43;9.32;;;;;;;;;;5162164;27;20019;-76
2023/10/13 10:49:43;;;;;;;14.70;8.82;;;;;;;;;;5164255;27;20072;-77
2023/10/13 10:52:36;;;;;;;15.80;7.40;;;;;;;;;;5189534;27;20102;-77
2023/10/13 10:55:27;;;;;;;15.88;6.80;;;;;;;;;;5192968;27;20062;-77
2023/10/13 10:58:28;;;;;;;12.75;7.60;;;;;;;;;;5180786;27;20459;-77
2023/10/13 11:01:23;;;;;;;13.55;7.47;;;;;;;;;;5188124;27;20022;-78
2023/10/13 11:04:14;;;;;;;13.82;7.50;;;;;;;;;;5185776;27;20040;-76
2023/10/13 11:07:00;;;;;;;13.38;7.95;;;;;;;;;;5166439;27;20017;-75
2023/10/13 11:09:52;;;;;;;18.98;9.18;;;;;;;;;;5164163;27;20022;-74
2023/10/13 11:12:39;;;;;;;17.75;8.57;;;;;;;;;;5179730;27;20018;-73
2023/10/13 11:15:35;;;;;;;16.83;8.48;;;;;;;;;;5179352;27;20043;-75
2023/10/13 11:18:33;;;;;;;11.98;7.45;;;;;;;;;;5165949;27;20014;-75
2023/10/13 11:21:22;;;;;;;16.55;6.90;;;;;;;;;;5161716;27;20041;-78
2023/10/13 11:24:14;;;;;;;16.70;6.85;;;;;;;;;;5162837;27;20293;-76
2023/10/13 11:27:02;;;;;;;16.17;6.75;;;;;;;;;;5162696;27;20036;-74
2023/10/13 11:29:52;;;;;;;27.38;8.02;;;;;;;;;;5164180;27;20047;-75
2023/10/13 11:32:41;;;;;;;15.18;6.80;;;;;;;;;;5179518;27;20018;-75
2023/10/13 11:38:51;;;;;;;12.80;6.85;;;;;;;;;;5179271;27;20029;-76
2023/10/13 11:41:45;;;;;;;11.88;7.15;;;;;;;;;;5158007;27;20018;-75
2023/10/13 11:44:33;;;;;;;14.88;6.72;;;;;;;;;;5157112;27;20463;-75
2023/10/13 11:48:12;;;;;;;11.60;7.30;;;;;;;;;;5143907;27;20441;-75
2023/10/13 11:50:33;;;;;;;10.57;6.90;;;;;;;;;;5155318;27;20038;-75
2023/10/13 11:53:19;;;;;;;12.93;6.68;;;;;;;;;;5152417;27;20083;-74
2023/10/13 11:56:10;;;;;;;14.68;7.10;;;;;;;;;;5171712;27;20041;-74
2023/10/13 11:59:01;;;;;;;13.07;7.60;;;;;;;;;;5172969;27;20007;-75
2023/10/13 12:04:57;;;;;;;17.27;6.68;;;;;;;;;;5158303;27;20011;-70
2023/10/13 12:10:36;;;;;;;18.38;8.90;;;;;;;;;;5164566;27;20053;-73
2023/10/13 12:13:22;;;;;;;15.10;8.23;;;;;;;;;;5157500;27;20050;-73
2023/10/13 12:16:09;;;;;;;21.70;12.38;;;;;;;;;;5164651;27;20024;-73
2023/10/13 12:18:55;;;;;;;15.57;8.07;;;;;;;;;;5177111;27;20037;-72
2023/10/13 12:21:43;;;;;;;12.35;8.10;;;;;;;;;;5177046;27;20022;-73
2023/10/13 12:27:20;;;;;;;13.10;7.22;;;;;;;;;;5177571;27;20019;-73
2023/10/13 12:30:07;;;;;;;12.95;7.50;;;;;;;;;;5177429;27;20332;-73
2023/10/13 12:33:08;;;;;;;18.23;8.48;;;;;;;;;;5162535;27;20424;-73
2023/10/13 12:36:06;;;;;;;13.68;7.70;;;;;;;;;;5177983;27;20026;-72
2023/10/13 12:48:55;;;;;;;12.10;7.80;;;;;;;;;;5177448;27;20413;-71
2023/10/13 12:54:14;;;;;;;16.05;10.32;;;;;;;;;;5176586;27;20006;-71
2023/10/13 12:57:00;;;;;;;17.60;9.00;;;;;;;;;;5176266;27;20022;-71
2023/10/13 12:59:45;;;;;;;18.98;8.82;;;;;;;;;;5176208;27;20010;-71
2023/10/13 13:02:31;;;;;;;24.17;9.40;;;;;;;;;;5177203;27;20054;-71
2023/10/13 13:05:22;;;;;;;20.38;8.88;;;;;;;;;;5176957;27;20507;-71
2023/10/13 13:08:08;;;;;;;17.52;8.27;;;;;;;;;;5176004;27;20208;-71
2023/10/13 13:10:55;;;;;;;14.65;8.50;;;;;;;;;;5175985;27;20022;-69
2023/10/13 13:13:40;;;;;;;17.25;8.45;;;;;;;;;;5176569;27;20099;-70
2023/10/13 13:16:30;;;;;;;12.57;8.57;;;;;;;;;;5175369;27;20471;-70
2023/10/13 13:19:24;;;;;;;21.83;9.40;;;;;;;;;;5176347;27;20085;-70
2023/10/13 13:22:12;;;;;;;17.73;8.90;;;;;;;;;;5174817;27;20359;-72
2023/10/13 13:25:00;;;;;;;15.60;8.55;;;;;;;;;;5176099;27;20018;-70
2023/10/13 13:27:46;;;;;;;14.70;8.55;;;;;;;;;;5176747;27;20114;-71
2023/10/13 13:30:34;;;;;;;14.07;8.85;;;;;;;;;;5176214;27;20195;-70
2023/10/13 13:33:23;;;;;;;12.45;7.93;;;;;;;;;;5175394;27;20045;-71
2023/10/13 13:36:15;;;;;;;20.35;8.75;;;;;;;;;;5176015;27;20074;-70
2023/10/13 13:39:01;;;;;;;16.70;8.75;;;;;;;;;;5174975;27;20124;-71
2023/10/13 13:41:50;;;;;;;16.30;8.73;;;;;;;;;;5176139;27;20018;-71
2023/10/13 13:44:36;;;;;;;13.95;7.63;;;;;;;;;;5176099;27;20050;-71
2023/10/13 13:47:22;;;;;;;15.88;9.02;;;;;;;;;;5175647;27;20499;-71
2023/10/13 13:50:14;;;;;;;26.33;9.48;;;;;;;;;;5175319;27;20356;-72
2023/10/13 13:53:00;;;;;;;21.48;8.65;;;;;;;;;;5175528;27;20014;-74
2023/10/13 13:55:51;;;;;;;20.45;9.13;;;;;;;;;;5175971;27;20050;-73
2023/10/13 13:58:38;;;;;;;19.08;8.50;;;;;;;;;;5175037;27;20022;-74
2023/10/13 14:01:26;;;;;;;18.42;9.38;;;;;;;;;;5174388;27;20482;-73
2023/10/13 14:04:14;;;;;;;21.88;13.27;;;;;;;;;;5175655;27;20029;-73
2023/10/13 14:06:59;;;;;;;18.05;10.18;;;;;;;;;;5175455;27;20010;-72
2023/10/13 14:09:51;;;;;;;22.90;9.50;;;;;;;;;;5176202;27;20436;-73
2023/10/13 14:12:43;;;;;;;29.98;10.70;;;;;;;;;;5174383;27;20109;-73
2023/10/13 14:15:29;;;;;;;23.15;10.43;;;;;;;;;;5179206;27;20150;-73
2023/10/13 14:18:17;;;;;;;21.95;9.82;;;;;;;;;;5165129;27;20034;-74
2023/10/13 14:21:03;;;;;;;22.00;9.60;;;;;;;;;;5179743;27;20029;-74
2023/10/13 14:23:51;;;;;;;16.15;10.18;;;;;;;;;;5179479;27;20022;-74
2023/10/13 14:26:39;;;;;;;23.45;9.73;;;;;;;;;;5165189;27;20030;-73
2023/10/13 14:29:26;;;;;;;28.65;9.55;;;;;;;;;;5164994;27;20015;-75
2023/10/13 14:32:15;;;;;;;19.80;10.38;;;;;;;;;;5180513;27;20397;-72
2023/10/13 14:35:10;;;;;;;28.52;11.35;;;;;;;;;;5179020;27;20022;-74
2023/10/13 14:37:56;;;;;;;30.77;12.02;;;;;;;;;;5179812;27;20075;-74
2023/10/13 14:40:43;;;;;;;27.42;11.88;;;;;;;;;;5179635;27;20026;-76
2023/10/13 14:43:29;;;;;;;20.90;11.93;;;;;;;;;;5180549;27;20301;-73
2023/10/13 14:46:15;;;;;;;25.30;11.43;;;;;;;;;;5164302;27;20034;-74
2023/10/13 14:49:04;;;;;;;25.83;11.15;;;;;;;;;;5157834;27;20122;-74
2023/10/13 14:51:50;;;;;;;25.80;11.75;;;;;;;;;;5158753;27;20030;-74
2023/10/13 14:54:36;;;;;;;56.17;12.82;;;;;;;;;;5158237;27;20087;-75
2023/10/13 14:57:25;;;;;;;62.13;12.77;;;;;;;;;;5157312;27;20019;-74
2023/10/13 15:00:13;;;;;;;51.13;12.13;;;;;;;;;;5156199;27;20415;-75
2023/10/13 15:03:01;;;;;;;28.05;10.98;;;;;;;;;;5152895;27;20330;-72
2023/10/13 15:05:47;;;;;;;25.85;10.40;;;;;;;;;;5137244;27;20409;-71
2023/10/13 15:08:33;;;;;;;31.30;11.38;;;;;;;;;;5138173;27;20020;-70
2023/10/13 15:11:18;;;;;;;29.05;12.00;;;;;;;;;;5138293;27;20021;-71
2023/10/13 15:14:06;;;;;;;31.17;12.07;;;;;;;;;;5137987;27;20106;-71
2023/10/13 15:16:52;;;;;;;26.65;12.07;;;;;;;;;;5138451;27;20357;-71
2023/10/13 15:19:42;;;;;;;36.33;14.00;;;;;;;;;;5137290;27;20023;-70
2023/10/13 15:22:28;;;;;;;35.97;13.57;;;;;;;;;;5120632;27;20019;-71
2023/10/13 15:25:20;;;;;;;44.85;13.32;;;;;;;;;;5115342;28;20461;-77
2023/10/13 15:28:09;;;;;;;43.17;14.00;;;;;;;;;;5141830;27;20019;-75
2023/10/13 15:31:09;;;;;;;39.55;14.68;;;;;;;;;;5155870;27;20076;-74
2023/10/13 15:33:55;;;;;;;39.47;16.23;;;;;;;;;;5157218;27;20459;-74
2023/10/13 15:36:44;;;;;;;47.42;16.30;;;;;;;;;;5156255;27;20019;-74
2023/10/13 15:39:31;;;;;;;41.47;16.67;;;;;;;;;;5149875;27;20026;-75
2023/10/13 15:42:18;;;;;;;48.15;17.58;;;;;;;;;;5136185;27;20034;-76
2023/10/13 15:45:16;;;;;;;52.97;18.63;;;;;;;;;;5137180;27;20019;-73
2023/10/13 15:48:04;;;;;;;32.08;17.08;;;;;;;;;;5137283;27;20018;-73
2023/10/13 15:50:50;;;;;;;49.13;18.58;;;;;;;;;;5136731;27;20517;-73
2023/10/13 15:53:36;;;;;;;44.38;18.33;;;;;;;;;;5137357;27;20038;-74
2023/10/13 15:56:21;;;;;;;43.88;16.85;;;;;;;;;;5138046;27;20027;-74
2023/10/13 15:59:07;;;;;;;41.40;16.83;;;;;;;;;;5136478;27;20035;-70
2023/10/13 16:01:57;;;;;;;41.20;17.35;;;;;;;;;;5136391;27;20031;-73
2023/10/13 16:04:44;;;;;;;36.53;15.82;;;;;;;;;;5137467;27;20084;-72
2023/10/13 16:07:29;;;;;;;40.88;15.73;;;;;;;;;;5137004;27;20027;-69
2023/10/13 16:10:15;;;;;;;36.95;15.25;;;;;;;;;;5136069;27;20148;-72
2023/10/13 16:13:04;;;;;;;43.83;17.15;;;;;;;;;;5136206;27;20049;-71
2023/10/13 16:15:52;;;;;;;40.80;16.35;;;;;;;;;;5141593;27;20305;-73
2023/10/13 16:18:37;;;;;;;40.42;16.20;;;;;;;;;;5156795;27;20046;-70
2023/10/13 16:21:23;;;;;;;32.95;15.35;;;;;;;;;;5160094;27;20027;-82
2023/10/13 16:24:11;;;;;;;43.85;16.88;;;;;;;;;;5164476;27;20011;-79
2023/10/13 16:26:58;;;;;;;34.30;16.17;;;;;;;;;;5162049;27;20374;-77
2023/10/13 16:29:44;;;;;;;39.83;16.90;;;;;;;;;;5157970;27;20128;-81
2023/10/13 16:32:30;;;;;;;43.28;18.55;;;;;;;;;;5157016;27;20163;-82
2023/10/13 16:35:17;;;;;;;45.00;17.92;;;;;;;;;;5140231;27;20070;-81
2023/10/13 16:38:06;;;;;;;40.35;17.70;;;;;;;;;;5113950;28;20024;-80
2023/10/13 16:40:53;;;;;;;52.88;18.08;;;;;;;;;;5115317;28;20119;-81
2023/10/13 16:43:39;;;;;;;53.92;17.95;;;;;;;;;;5114737;28;20031;-75
2023/10/13 16:46:26;;;;;;;50.65;18.88;;;;;;;;;;5114346;28;20020;-75
2023/10/13 16:49:11;;;;;;;48.10;18.70;;;;;;;;;;5128278;27;20049;-76
2023/10/13 16:51:57;;;;;;;47.70;19.92;;;;;;;;;;5140851;27;20140;-77
2023/10/13 16:54:43;;;;;;;45.08;17.77;;;;;;;;;;5155238;27;20087;-76
2023/10/13 16:57:28;;;;;;;47.28;19.48;;;;;;;;;;5174096;27;20018;-75
2023/10/13 17:00:18;;;;;;;51.45;20.00;;;;;;;;;;5160634;27;20358;-77
2023/10/13 17:03:05;;;;;;;53.72;20.73;;;;;;;;;;5147896;27;20396;-77
2023/10/13 17:05:51;;;;;;;55.92;25.23;;;;;;;;;;5160615;27;20324;-79
2023/10/13 17:08:37;;;;;;;63.00;23.27;;;;;;;;;;5175964;27;20158;-77
2023/10/13 17:11:24;;;;;;;57.95;21.88;;;;;;;;;;5176085;27;20037;-77
2023/10/13 17:14:09;;;;;;;45.30;21.48;;;;;;;;;;5176544;27;20018;-77
2023/10/13 17:16:57;;;;;;;51.88;21.92;;;;;;;;;;5176968;27;20061;-77
2023/10/13 17:19:49;;;;;;;55.58;22.48;;;;;;;;;;5177047;27;20034;-77
2023/10/13 17:22:36;;;;;;;53.83;22.10;;;;;;;;;;5177617;27;20502;-77
2023/10/13 17:25:22;;;;;;;55.92;22.77;;;;;;;;;;5176748;27;20033;-77
2023/10/13 17:28:14;;;;;;;48.90;22.85;;;;;;;;;;5163949;27;20030;-77
2023/10/13 17:30:59;;;;;;;56.08;22.17;;;;;;;;;;5161479;27;20448;-78
2023/10/13 17:33:46;;;;;;;61.83;25.05;;;;;;;;;;5178637;27;20033;-78
2023/10/13 17:36:31;;;;;;;63.13;26.08;;;;;;;;;;5165583;27;20025;-76
2023/10/13 17:39:19;;;;;;;57.40;25.58;;;;;;;;;;5179942;27;20093;-76
2023/10/13 17:42:05;;;;;;;65.93;25.83;;;;;;;;;;5177116;27;20029;-76
2023/10/13 17:44:52;;;;;;;59.58;26.58;;;;;;;;;;5160499;27;20055;-78
2023/10/13 17:47:38;;;;;;;54.33;25.23;;;;;;;;;;5177431;27;20397;-77
2023/10/13 17:50:23;;;;;;;55.20;23.67;;;;;;;;;;5162478;27;20456;-76
2023/10/13 17:53:10;;;;;;;60.92;24.02;;;;;;;;;;5176801;27;20030;-76
2023/10/13 17:55:55;;;;;;;56.67;22.90;;;;;;;;;;5178569;27;20097;-76
2023/10/13 17:58:42;;;;;;;49.88;21.73;;;;;;;;;;5177776;27;20026;-77
2023/10/13 18:01:31;;;;;;;42.33;19.60;;;;;;;;;;5177078;27;20462;-76
2023/10/13 18:04:18;;;;;;;49.95;20.60;;;;;;;;;;5179488;27;20049;-76
2023/10/13 18:07:05;;;;;;;51.63;21.25;;;;;;;;;;5178673;27;20014;-76
2023/10/13 18:09:52;;;;;;;46.72;20.48;;;;;;;;;;5163659;27;20030;-77
2023/10/13 18:12:37;;;;;;;42.85;20.55;;;;;;;;;;5179335;27;20455;-77
2023/10/13 18:15:26;;;;;;;48.92;19.80;;;;;;;;;;5177059;27;20340;-75
2023/10/13 18:18:13;;;;;;;49.42;19.70;;;;;;;;;;5156871;27;20038;-76
2023/10/13 18:21:07;;;;;;;38.35;19.90;;;;;;;;;;5155456;27;20417;-77
2023/10/13 18:23:55;;;;;;;35.92;19.65;;;;;;;;;;5157330;27;20027;-77
2023/10/13 18:26:40;;;;;;;43.75;19.13;;;;;;;;;;5156639;27;20018;-77
2023/10/13 18:29:26;;;;;;;38.65;19.13;;;;;;;;;;5155307;27;20052;-77
2023/10/13 18:32:14;;;;;;;41.60;20.35;;;;;;;;;;5156805;27;20035;-78
2023/10/13 18:35:01;;;;;;;47.25;21.60;;;;;;;;;;5156478;27;20030;-77
2023/10/13 18:37:47;;;;;;;50.50;21.25;;;;;;;;;;5154616;27;20189;-74
2023/10/13 18:40:36;;;;;;;54.38;21.17;;;;;;;;;;5153448;27;20523;-74
2023/10/13 18:43:23;;;;;;;39.42;20.55;;;;;;;;;;5153427;27;20497;-73
2023/10/13 18:46:11;;;;;;;42.90;22.27;;;;;;;;;;5153941;27;20360;-77
2023/10/13 18:49:01;;;;;;;45.50;22.10;;;;;;;;;;5153514;27;20112;-73
2023/10/13 18:51:47;;;;;;;48.95;23.35;;;;;;;;;;5155101;27;20051;-73
2023/10/13 18:54:34;;;;;;;46.58;22.45;;;;;;;;;;5173590;27;20109;-72
2023/10/13 18:57:21;;;;;;;48.80;23.15;;;;;;;;;;5159091;27;20363;-73
2023/10/13 19:00:06;;;;;;;46.20;22.55;;;;;;;;;;5175027;27;20067;-73
2023/10/13 19:02:52;;;;;;;41.60;21.83;;;;;;;;;;5162270;27;20423;-72
2023/10/13 19:05:44;;;;;;;51.03;23.02;;;;;;;;;;5162598;27;20448;-73
2023/10/13 19:08:31;;;;;;;43.17;21.95;;;;;;;;;;5163279;27;20070;-73
2023/10/13 19:11:19;;;;;;;43.53;22.90;;;;;;;;;;5176739;27;20021;-72
2023/10/13 19:14:09;;;;;;;45.08;22.55;;;;;;;;;;5177510;27;20022;-72
2023/10/13 19:16:57;;;;;;;44.15;22.25;;;;;;;;;;5162642;27;20496;-73
2023/10/13 19:19:44;;;;;;;50.00;22.60;;;;;;;;;;5178548;27;20094;-72
2023/10/13 19:22:31;;;;;;;52.58;22.58;;;;;;;;;;5162257;27;20109;-73
2023/10/13 19:25:17;;;;;;;45.53;22.45;;;;;;;;;;5177452;27;20014;-72
2023/10/13 19:28:03;;;;;;;48.22;22.90;;;;;;;;;;5178098;27;20075;-71
2023/10/13 19:30:52;;;;;;;42.63;21.98;;;;;;;;;;5162738;27;20018;-73
2023/10/13 19:33:38;;;;;;;50.10;23.20;;;;;;;;;;5178096;27;20335;-73
2023/10/13 19:36:23;;;;;;;48.90;22.50;;;;;;;;;;5178058;27;20022;-71
2023/10/13 19:39:09;;;;;;;47.70;22.30;;;;;;;;;;5177601;27;20101;-74